createdAt,value
2023-03-22T00:00:29.027Z,9.30
2023-03-22T00:01:29.035Z,9.20
2023-03-22T00:02:29.056Z,8.80
2023-03-22T00:03:29.041Z,8.00
2023-03-22T00:04:28.982Z,8.90
2023-03-22T00:05:28.967Z,10.30
2023-03-22T00:06:28.956Z,8.90
2023-03-22T00:07:28.947Z,8.50
2023-03-22T00:08:28.936Z,9.20
2023-03-22T00:09:28.914Z,8.70
2023-03-22T00:10:28.895Z,9.00
2023-03-22T00:11:28.888Z,10.30
2023-03-22T00:12:28.886Z,9.60
2023-03-22T00:13:28.864Z,9.30
2023-03-22T00:14:28.857Z,8.20
2023-03-22T00:15:28.832Z,8.10
2023-03-22T00:16:28.923Z,8.80
2023-03-22T00:17:28.833Z,10.30
2023-03-22T00:18:28.799Z,9.10
2023-03-22T00:19:28.787Z,11.20
2023-03-22T00:20:28.761Z,12.80
2023-03-22T00:21:28.776Z,14.30
2023-03-22T00:22:28.754Z,12.70
2023-03-22T00:23:28.749Z,11.00
2023-03-22T00:24:28.713Z,11.50
2023-03-22T00:25:28.711Z,13.20
2023-03-22T00:26:28.693Z,12.00
2023-03-22T00:27:28.699Z,14.20
2023-03-22T00:28:28.665Z,14.30
2023-03-22T00:29:28.642Z,12.40
2023-03-22T00:30:28.644Z,12.90
2023-03-22T00:31:28.675Z,11.30
2023-03-22T00:32:28.607Z,11.00
2023-03-22T00:33:28.602Z,13.30
2023-03-22T00:34:28.573Z,14.40
2023-03-22T00:35:28.631Z,12.20
2023-03-22T00:36:28.567Z,12.30
2023-03-22T00:37:28.554Z,14.10
2023-03-22T00:38:41.458Z,12.70
2023-03-22T00:39:29.512Z,14.50
2023-03-22T00:40:28.505Z,12.80
2023-03-22T00:41:28.496Z,14.50
2023-03-22T00:42:28.485Z,13.90
2023-03-22T00:43:28.494Z,14.40
2023-03-22T00:44:28.443Z,11.70
2023-03-22T00:45:28.439Z,12.90
2023-03-22T00:46:28.488Z,12.00
2023-03-22T00:47:28.423Z,12.50
2023-03-22T00:48:28.400Z,12.40
2023-03-22T00:49:28.387Z,9.60
2023-03-22T00:50:28.396Z,12.30
2023-03-22T00:51:28.402Z,13.30
2023-03-22T00:52:28.365Z,12.30
2023-03-22T00:53:28.326Z,13.10
2023-03-22T00:54:28.314Z,14.50
2023-03-22T00:55:28.293Z,12.80
2023-03-22T00:56:28.281Z,15.90
2023-03-22T00:57:28.294Z,14.70
2023-03-22T00:58:28.252Z,15.90
2023-03-22T00:59:28.258Z,15.00
2023-03-22T01:00:28.253Z,13.80
2023-03-22T01:01:28.292Z,15.00
2023-03-22T01:02:28.243Z,13.60
2023-03-22T01:03:28.224Z,14.70
2023-03-22T01:04:28.176Z,14.50
2023-03-22T01:05:28.163Z,11.90
2023-03-22T01:06:28.144Z,12.20
2023-03-22T01:07:28.173Z,11.90
2023-03-22T01:08:28.120Z,14.50
2023-03-22T01:09:28.131Z,12.50
2023-03-22T01:10:28.102Z,11.50
2023-03-22T01:11:28.093Z,11.60
2023-03-22T01:12:28.088Z,12.30
2023-03-22T01:13:28.065Z,11.70
2023-03-22T01:14:28.038Z,12.10
2023-03-22T01:15:28.051Z,13.20
2023-03-22T01:16:28.072Z,11.90
2023-03-22T01:17:28.010Z,10.60
2023-03-22T01:18:28.009Z,11.40
2023-03-22T01:19:27.988Z,10.90
2023-03-22T01:20:27.959Z,13.10
2023-03-22T01:21:27.958Z,13.00
2023-03-22T01:22:27.954Z,12.00
2023-03-22T01:23:27.923Z,12.90
2023-03-22T01:24:27.897Z,12.30
2023-03-22T01:25:27.889Z,13.00
2023-03-22T01:26:27.873Z,12.80
2023-03-22T01:27:27.878Z,12.20
2023-03-22T01:28:27.963Z,12.80
2023-03-22T01:29:27.859Z,12.30
2023-03-22T01:30:27.883Z,11.30
2023-03-22T01:31:27.818Z,12.00
2023-03-22T01:32:27.844Z,12.30
2023-03-22T01:33:27.792Z,13.30
2023-03-22T01:34:27.813Z,12.80
2023-03-22T01:35:27.888Z,12.90
2023-03-22T01:36:27.762Z,12.00
2023-03-22T01:37:27.754Z,12.30
2023-03-22T01:38:27.722Z,11.40
2023-03-22T01:39:27.707Z,11.80
2023-03-22T01:40:27.688Z,11.90
2023-03-22T01:41:27.687Z,11.20
2023-03-22T01:42:27.681Z,12.40
2023-03-22T01:43:27.659Z,10.80
2023-03-22T01:44:27.652Z,12.20
2023-03-22T01:45:27.633Z,12.30
2023-03-22T01:46:27.642Z,11.60
2023-03-22T01:47:27.615Z,10.90
2023-03-22T01:48:27.620Z,12.70
2023-03-22T01:49:27.593Z,12.40
2023-03-22T01:50:27.559Z,12.00
2023-03-22T01:51:27.568Z,12.20
2023-03-22T01:52:27.542Z,10.80
2023-03-22T01:53:27.514Z,9.90
2023-03-22T01:54:27.510Z,10.70
2023-03-22T01:55:27.508Z,9.20
2023-03-22T01:56:27.499Z,10.60
2023-03-22T01:57:27.485Z,10.80
2023-03-22T01:58:27.452Z,11.50
2023-03-22T01:59:27.445Z,10.80
2023-03-22T02:00:27.423Z,10.20
2023-03-22T02:01:27.490Z,11.30
2023-03-22T02:02:27.405Z,9.90
2023-03-22T02:03:27.386Z,9.70
2023-03-22T02:04:27.381Z,10.40
2023-03-22T02:05:27.369Z,9.50
2023-03-22T02:06:27.341Z,9.90
2023-03-22T02:07:27.419Z,9.10
2023-03-22T02:08:27.312Z,8.80
2023-03-22T02:09:27.348Z,10.70
2023-03-22T02:10:27.298Z,10.00
2023-03-22T02:11:27.292Z,8.90
2023-03-22T02:12:27.269Z,12.40
2023-03-22T02:13:27.269Z,10.80
2023-03-22T02:14:27.526Z,9.40
2023-03-22T02:15:27.229Z,9.50
2023-03-22T02:16:27.228Z,10.40
2023-03-22T02:17:27.236Z,10.10
2023-03-22T02:18:27.176Z,9.60
2023-03-22T02:19:27.169Z,10.20
2023-03-22T02:20:27.158Z,9.50
2023-03-22T02:21:27.185Z,10.50
2023-03-22T02:22:27.140Z,9.00
2023-03-22T02:23:27.137Z,9.00
2023-03-22T02:24:27.097Z,8.20
2023-03-22T02:25:27.096Z,9.20
2023-03-22T02:26:27.069Z,9.90
2023-03-22T02:27:27.118Z,9.00
2023-03-22T02:28:27.048Z,9.30
2023-03-22T02:29:27.063Z,10.10
2023-03-22T02:30:27.026Z,11.50
2023-03-22T02:31:27.057Z,9.80
2023-03-22T02:32:27.046Z,8.70
2023-03-22T02:33:26.984Z,10.80
2023-03-22T02:34:26.974Z,11.70
2023-03-22T02:35:27.019Z,8.40
2023-03-22T02:36:26.943Z,10.60
2023-03-22T02:37:26.946Z,8.30
2023-03-22T02:38:26.912Z,12.00
2023-03-22T02:39:26.917Z,10.00
2023-03-22T02:40:26.887Z,9.30
2023-03-22T02:41:26.879Z,11.00
2023-03-22T02:42:26.866Z,9.80
2023-03-22T02:43:26.865Z,9.80
2023-03-22T02:44:26.836Z,11.20
2023-03-22T02:45:26.857Z,8.50
2023-03-22T02:46:26.862Z,9.30
2023-03-22T02:47:26.814Z,10.20
2023-03-22T02:48:26.843Z,9.70
2023-03-22T02:49:26.775Z,11.00
2023-03-22T02:50:26.773Z,10.20
2023-03-22T02:51:26.755Z,12.10
2023-03-22T02:52:26.743Z,9.00
2023-03-22T02:53:26.723Z,11.00
2023-03-22T02:54:26.705Z,10.50
2023-03-22T02:55:26.697Z,8.80
2023-03-22T02:56:26.693Z,10.50
2023-03-22T02:57:26.672Z,10.20
2023-03-22T02:58:26.705Z,10.30
2023-03-22T02:59:26.638Z,10.10
2023-03-22T03:00:26.611Z,10.20
2023-03-22T03:01:26.610Z,10.10
2023-03-22T03:02:26.682Z,10.00
2023-03-22T03:03:26.603Z,9.20
2023-03-22T03:04:26.579Z,11.20
2023-03-22T03:05:26.556Z,9.30
2023-03-22T03:06:26.577Z,11.30
2023-03-22T03:07:26.542Z,10.50
2023-03-22T03:08:26.552Z,10.60
2023-03-22T03:09:26.510Z,11.20
2023-03-22T03:10:26.485Z,11.20
2023-03-22T03:11:26.480Z,10.90
2023-03-22T03:12:26.470Z,11.50
2023-03-22T03:13:26.439Z,9.20
2023-03-22T03:14:26.498Z,11.20
2023-03-22T03:15:26.420Z,10.10
2023-03-22T03:16:26.462Z,11.50
2023-03-22T03:17:26.401Z,10.00
2023-03-22T03:18:26.383Z,10.80
2023-03-22T03:19:26.371Z,11.60
2023-03-22T03:20:26.369Z,10.30
2023-03-22T03:21:26.360Z,10.60
2023-03-22T03:22:26.361Z,10.00
2023-03-22T03:23:26.320Z,10.30
2023-03-22T03:24:26.318Z,12.20
2023-03-22T03:25:26.303Z,11.10
2023-03-22T03:26:26.293Z,9.90
2023-03-22T03:27:26.279Z,9.50
2023-03-22T03:28:26.259Z,11.20
2023-03-22T03:29:26.227Z,11.60
2023-03-22T03:30:26.247Z,11.00
2023-03-22T03:31:26.374Z,11.80
2023-03-22T03:32:26.199Z,11.10
2023-03-22T03:33:26.195Z,12.00
2023-03-22T03:34:26.167Z,11.40
2023-03-22T03:35:26.179Z,10.20
2023-03-22T03:36:26.148Z,11.60
2023-03-22T03:37:26.157Z,10.40
2023-03-22T03:38:26.120Z,9.50
2023-03-22T03:39:26.110Z,10.70
2023-03-22T03:40:26.114Z,11.70
2023-03-22T03:41:26.069Z,8.40
2023-03-22T03:42:26.092Z,8.60
2023-03-22T03:43:26.049Z,11.30
2023-03-22T03:44:26.028Z,9.40
2023-03-22T03:45:26.134Z,9.00
2023-03-22T03:46:26.026Z,11.00
2023-03-22T03:47:26.033Z,10.00
2023-03-22T03:48:26.075Z,16.10
2023-03-22T03:49:25.972Z,11.00
2023-03-22T03:50:25.975Z,13.00
2023-03-22T03:51:25.948Z,12.10
2023-03-22T03:52:25.958Z,9.80
2023-03-22T03:53:25.932Z,10.70
2023-03-22T03:54:26.014Z,13.50
2023-03-22T03:55:25.907Z,9.50
2023-03-22T03:56:25.897Z,11.10
2023-03-22T03:57:25.881Z,10.20
2023-03-22T03:58:25.869Z,14.40
2023-03-22T03:59:25.872Z,11.00
2023-03-22T04:00:25.858Z,10.80
2023-03-22T04:01:25.809Z,12.70
2023-03-22T04:02:25.932Z,12.50
2023-03-22T04:03:25.783Z,11.30
2023-03-22T04:04:25.856Z,11.30
2023-03-22T04:05:25.759Z,10.60
2023-03-22T04:06:25.755Z,11.20
2023-03-22T04:07:25.745Z,11.30
2023-03-22T04:08:25.729Z,11.50
2023-03-22T04:09:25.708Z,10.70
2023-03-22T04:10:25.698Z,15.10
2023-03-22T04:11:25.691Z,12.50
2023-03-22T04:12:25.686Z,12.40
2023-03-22T04:13:25.663Z,14.10
2023-03-22T04:14:25.662Z,10.80
2023-03-22T04:15:25.629Z,13.80
2023-03-22T04:16:25.647Z,10.10
2023-03-22T04:17:25.635Z,11.30
2023-03-22T04:18:25.595Z,11.10
2023-03-22T04:19:25.578Z,10.60
2023-03-22T04:20:25.570Z,13.10
2023-03-22T04:21:25.553Z,11.90
2023-03-22T04:22:25.564Z,12.10
2023-03-22T04:23:25.547Z,14.00
2023-03-22T04:24:25.538Z,13.60
2023-03-22T04:25:25.487Z,16.20
2023-03-22T04:26:26.716Z,13.60
2023-03-22T04:27:25.484Z,11.60
2023-03-22T04:28:25.466Z,10.60
2023-03-22T04:29:25.436Z,13.60
2023-03-22T04:30:25.428Z,13.10
2023-03-22T04:31:25.481Z,14.80
2023-03-22T04:32:25.437Z,12.70
2023-03-22T04:33:25.393Z,13.00
2023-03-22T04:34:25.387Z,13.40
2023-03-22T04:35:25.379Z,14.50
2023-03-22T04:36:25.341Z,13.80
2023-03-22T04:37:25.335Z,14.90
2023-03-22T04:38:25.359Z,14.00
2023-03-22T04:39:25.319Z,13.20
2023-03-22T04:40:25.305Z,13.50
2023-03-22T04:41:25.292Z,13.50
2023-03-22T04:42:25.330Z,13.00
2023-03-22T04:43:25.273Z,15.50
2023-03-22T04:44:25.233Z,12.10
2023-03-22T04:45:25.236Z,13.00
2023-03-22T04:46:25.311Z,14.70
2023-03-22T04:47:25.204Z,14.90
2023-03-22T04:48:25.193Z,13.30
2023-03-22T04:49:25.172Z,15.20
2023-03-22T04:50:25.174Z,16.50
2023-03-22T04:51:25.135Z,15.20
2023-03-22T04:52:25.145Z,16.20
2023-03-22T04:53:25.113Z,12.90
2023-03-22T04:54:25.119Z,14.70
2023-03-22T04:55:25.092Z,13.30
2023-03-22T04:56:25.150Z,15.10
2023-03-22T04:57:25.077Z,13.30
2023-03-22T04:58:25.054Z,15.30
2023-03-22T04:59:25.078Z,13.20
2023-03-22T05:00:25.032Z,15.40
2023-03-22T05:01:25.120Z,14.80
2023-03-22T05:02:25.053Z,15.30
2023-03-22T05:03:24.993Z,15.30
2023-03-22T05:04:24.970Z,14.00
2023-03-22T05:05:24.975Z,13.80
2023-03-22T05:06:24.952Z,14.60
2023-03-22T05:07:24.951Z,15.40
2023-03-22T05:08:24.959Z,14.20
2023-03-22T05:09:24.900Z,16.50
2023-03-22T05:10:24.904Z,14.90
2023-03-22T05:11:24.880Z,14.10
2023-03-22T05:12:24.875Z,16.80
2023-03-22T05:13:24.868Z,14.60
2023-03-22T05:14:24.881Z,13.40
2023-03-22T05:15:24.843Z,13.20
2023-03-22T05:16:24.932Z,12.70
2023-03-22T05:17:24.813Z,14.00
2023-03-22T05:18:24.797Z,16.40
2023-03-22T05:19:24.810Z,14.90
2023-03-22T05:20:24.783Z,14.30
2023-03-22T05:21:24.738Z,14.50
2023-03-22T05:22:24.766Z,15.80
2023-03-22T05:23:24.736Z,14.80
2023-03-22T05:24:24.710Z,13.80
2023-03-22T05:25:24.713Z,14.40
2023-03-22T05:26:24.704Z,14.00
2023-03-22T05:27:24.673Z,14.70
2023-03-22T05:28:24.651Z,13.50
2023-03-22T05:29:24.640Z,13.50
2023-03-22T05:30:24.660Z,15.30
2023-03-22T05:31:24.697Z,16.80
2023-03-22T05:32:24.620Z,14.60
2023-03-22T05:33:24.582Z,13.90
2023-03-22T05:34:24.575Z,13.50
2023-03-22T05:35:24.601Z,16.50
2023-03-22T05:36:24.553Z,15.50
2023-03-22T05:37:24.556Z,13.40
2023-03-22T05:38:24.532Z,14.60
2023-03-22T05:39:24.543Z,12.40
2023-03-22T05:40:24.525Z,13.50
2023-03-22T05:41:24.508Z,17.60
2023-03-22T05:42:24.495Z,16.30
2023-03-22T05:43:24.454Z,17.30
2023-03-22T05:44:24.472Z,16.90
2023-03-22T05:45:24.442Z,17.70
2023-03-22T05:46:24.520Z,15.80
2023-03-22T05:47:24.412Z,15.60
2023-03-22T05:48:24.412Z,16.30
2023-03-22T05:49:24.383Z,16.10
2023-03-22T05:50:24.391Z,17.10
2023-03-22T05:51:24.353Z,15.30
2023-03-22T05:52:24.366Z,16.20
2023-03-22T05:53:24.326Z,14.60
2023-03-22T05:54:24.303Z,14.30
2023-03-22T05:55:24.293Z,15.60
2023-03-22T05:56:24.569Z,14.80
2023-03-22T05:57:24.306Z,15.80
2023-03-22T05:58:24.273Z,13.00
2023-03-22T05:59:24.254Z,14.50
2023-03-22T06:00:24.234Z,16.50
2023-03-22T06:01:24.239Z,17.70
2023-03-22T06:02:24.215Z,15.30
2023-03-22T06:03:24.217Z,14.40
2023-03-22T06:04:24.206Z,14.40
2023-03-22T06:05:24.187Z,14.80
2023-03-22T06:06:24.172Z,16.10
2023-03-22T06:07:24.156Z,15.10
2023-03-22T06:08:26.467Z,14.50
2023-03-22T06:09:24.113Z,15.90
2023-03-22T06:10:24.114Z,15.20
2023-03-22T06:11:24.093Z,15.90
2023-03-22T06:12:24.123Z,16.10
2023-03-22T06:13:24.115Z,14.90
2023-03-22T06:14:24.044Z,13.70
2023-03-22T06:15:24.062Z,15.80
2023-03-22T06:16:24.149Z,16.70
2023-03-22T06:17:24.033Z,15.50
2023-03-22T06:18:24.015Z,13.30
2023-03-22T06:19:23.974Z,12.90
2023-03-22T06:20:23.974Z,15.10
2023-03-22T06:21:23.953Z,17.00
2023-03-22T06:22:23.961Z,15.90
2023-03-22T06:23:23.944Z,16.60
2023-03-22T06:24:23.918Z,15.40
2023-03-22T06:25:23.915Z,14.30
2023-03-22T06:26:23.895Z,13.50
2023-03-22T06:27:23.883Z,13.70
2023-03-22T06:28:23.880Z,16.10
2023-03-22T06:29:23.847Z,15.40
2023-03-22T06:30:23.882Z,12.60
2023-03-22T06:31:23.810Z,13.70
2023-03-22T06:32:23.952Z,13.00
2023-03-22T06:33:23.778Z,14.00
2023-03-22T06:34:23.766Z,13.80
2023-03-22T06:35:23.782Z,14.20
2023-03-22T06:36:23.757Z,13.10
2023-03-22T06:37:23.765Z,13.90
2023-03-22T06:38:23.735Z,13.20
2023-03-22T06:39:23.715Z,14.50
2023-03-22T06:40:23.693Z,14.30
2023-03-22T06:41:23.671Z,12.70
2023-03-22T06:42:23.672Z,13.70
2023-03-22T06:43:23.641Z,12.30
2023-03-22T06:44:23.631Z,13.80
2023-03-22T06:45:23.627Z,11.80
2023-03-22T06:46:23.736Z,15.00
2023-03-22T06:47:23.623Z,13.10
2023-03-22T06:48:23.644Z,12.60
2023-03-22T06:49:23.559Z,12.60
2023-03-22T06:50:23.570Z,12.10
2023-03-22T06:51:23.539Z,11.80
2023-03-22T06:52:23.539Z,12.90
2023-03-22T06:53:23.515Z,11.00
2023-03-22T06:54:23.501Z,12.90
2023-03-22T06:55:23.511Z,13.60
2023-03-22T06:56:23.480Z,11.40
2023-03-22T06:57:23.501Z,12.40
2023-03-22T06:58:23.451Z,12.00
2023-03-22T06:59:23.434Z,11.90
2023-03-22T07:00:23.416Z,12.20
2023-03-22T07:01:23.503Z,13.60
2023-03-22T07:02:23.420Z,13.10
2023-03-22T07:03:23.376Z,14.70
2023-03-22T07:04:23.402Z,13.40
2023-03-22T07:05:23.359Z,15.40
2023-03-22T07:06:23.341Z,13.60
2023-03-22T07:07:23.356Z,12.30
2023-03-22T07:08:23.325Z,13.40
2023-03-22T07:09:23.303Z,14.40
2023-03-22T07:10:23.292Z,12.40
2023-03-22T07:11:23.362Z,12.70
2023-03-22T07:12:23.285Z,13.40
2023-03-22T07:13:23.251Z,11.80
2023-03-22T07:14:23.246Z,13.20
2023-03-22T07:15:23.227Z,12.40
2023-03-22T07:16:23.268Z,13.90
2023-03-22T07:17:23.200Z,13.00
2023-03-22T07:18:23.208Z,11.70
2023-03-22T07:19:23.291Z,12.60
2023-03-22T07:20:23.544Z,13.90
2023-03-22T07:21:23.158Z,13.50
2023-03-22T07:22:23.146Z,11.60
2023-03-22T07:23:23.130Z,12.40
2023-03-22T07:24:23.097Z,12.00
2023-03-22T07:25:23.079Z,12.10
2023-03-22T07:26:23.092Z,11.90
2023-03-22T07:27:23.135Z,12.10
2023-03-22T07:28:23.064Z,14.60
2023-03-22T07:29:23.057Z,11.50
2023-03-22T07:30:23.051Z,12.10
2023-03-22T07:31:23.044Z,11.00
2023-03-22T07:32:23.085Z,12.80
2023-03-22T07:33:23.030Z,11.70
2023-03-22T07:34:22.970Z,12.90
2023-03-22T07:35:25.529Z,11.10
2023-03-22T07:36:22.949Z,12.60
2023-03-22T07:37:23.198Z,10.00
2023-03-22T07:38:22.909Z,12.20
2023-03-22T07:39:22.934Z,10.40
2023-03-22T07:40:22.892Z,11.90
2023-03-22T07:41:22.884Z,10.50
2023-03-22T07:42:22.893Z,10.70
2023-03-22T07:43:22.852Z,9.80
2023-03-22T07:44:22.835Z,10.20
2023-03-22T07:45:22.889Z,10.20
2023-03-22T07:46:22.836Z,10.50
2023-03-22T07:47:39.467Z,9.90
2023-03-22T07:48:23.822Z,10.80
2023-03-22T07:49:22.781Z,9.70
2023-03-22T07:50:22.780Z,9.30
2023-03-22T07:51:22.754Z,10.70
2023-03-22T07:52:22.760Z,12.40
2023-03-22T07:53:22.721Z,9.70
2023-03-22T07:54:32.885Z,9.70
2023-03-22T07:55:23.713Z,10.20
2023-03-22T07:56:22.702Z,10.50
2023-03-22T07:57:22.679Z,10.30
2023-03-22T07:58:22.672Z,10.00
2023-03-22T07:59:22.646Z,9.40
2023-03-22T08:00:22.648Z,10.30
2023-03-22T08:01:22.632Z,10.40
2023-03-22T08:02:22.690Z,10.00
2023-03-22T08:03:22.632Z,11.00
2023-03-22T08:04:22.621Z,9.80
2023-03-22T08:05:22.613Z,9.10
2023-03-22T08:06:22.551Z,10.80
2023-03-22T08:07:22.649Z,9.30
2023-03-22T08:08:22.530Z,10.50
2023-03-22T08:09:22.533Z,9.20
2023-03-22T08:10:22.595Z,11.90
2023-03-22T08:11:22.497Z,10.00
2023-03-22T08:12:22.486Z,9.90
2023-03-22T08:13:22.462Z,10.90
2023-03-22T08:14:34.031Z,8.90
2023-03-22T08:15:23.590Z,11.50
2023-03-22T08:16:22.415Z,9.10
2023-03-22T08:17:22.414Z,9.10
2023-03-22T08:18:22.404Z,9.90
2023-03-22T08:19:22.372Z,9.70
2023-03-22T08:20:22.381Z,9.10
2023-03-22T08:21:22.366Z,10.50
2023-03-22T08:22:22.374Z,11.40
2023-03-22T08:23:31.719Z,8.80
2023-03-22T08:24:23.305Z,11.00
2023-03-22T08:25:22.371Z,8.60
2023-03-22T08:26:22.284Z,9.50
2023-03-22T08:27:22.317Z,8.90
2023-03-22T08:28:22.264Z,10.40
2023-03-22T08:29:22.260Z,9.00
2023-03-22T08:30:22.247Z,9.30
2023-03-22T08:31:22.286Z,10.50
2023-03-22T08:32:22.205Z,10.50
2023-03-22T08:33:22.223Z,10.20
2023-03-22T08:34:22.206Z,9.20
2023-03-22T08:35:22.223Z,10.60
2023-03-22T08:36:22.150Z,9.30
2023-03-22T08:37:22.208Z,10.20
2023-03-22T08:38:22.126Z,10.10
2023-03-22T08:39:22.127Z,9.90
2023-03-22T08:40:22.159Z,7.50
2023-03-22T08:41:22.078Z,9.30
2023-03-22T08:42:22.080Z,9.60
2023-03-22T08:43:22.056Z,35.10
2023-03-22T08:44:22.071Z,41.60
2023-03-22T08:45:22.093Z,47.60
2023-03-22T08:46:22.100Z,82.20
2023-03-22T08:47:22.105Z,134.80
2023-03-22T08:48:22.070Z,231.30
2023-03-22T08:49:21.987Z,227.50
2023-03-22T08:50:21.965Z,48.20
2023-03-22T08:51:21.945Z,145.20
2023-03-22T08:52:21.933Z,164.40
2023-03-22T08:53:21.915Z,294.40
2023-03-22T08:54:21.920Z,413.40
2023-03-22T08:55:21.930Z,100.00
2023-03-22T08:56:21.881Z,13.40
2023-03-22T08:57:21.867Z,10.10
2023-03-22T08:58:21.858Z,8.70
2023-03-22T08:59:21.846Z,9.90
2023-03-22T09:00:21.846Z,8.30
2023-03-22T09:01:21.900Z,7.90
2023-03-22T09:02:21.843Z,8.10
2023-03-22T09:03:21.775Z,7.90
2023-03-22T09:04:21.804Z,8.00
2023-03-22T09:05:21.761Z,9.60
2023-03-22T09:06:21.764Z,7.90
2023-03-22T09:07:21.733Z,7.00
2023-03-22T09:08:21.733Z,8.40
2023-03-22T09:09:21.718Z,7.00
2023-03-22T09:10:21.674Z,8.30
2023-03-22T09:11:21.705Z,7.70
2023-03-22T09:12:21.654Z,8.90
2023-03-22T09:13:21.655Z,6.50
2023-03-22T09:14:21.634Z,8.80
2023-03-22T09:15:21.615Z,8.20
2023-03-22T09:16:21.638Z,7.60
2023-03-22T09:17:22.569Z,5.90
2023-03-22T09:18:21.590Z,7.50
2023-03-22T09:19:21.586Z,10.20
2023-03-22T09:20:21.551Z,7.90
2023-03-22T09:21:21.561Z,8.80
2023-03-22T09:22:21.529Z,9.40
2023-03-22T09:23:21.510Z,7.10
2023-03-22T09:24:21.503Z,8.90
2023-03-22T09:25:21.506Z,10.10
2023-03-22T09:26:21.492Z,6.90
2023-03-22T09:27:21.465Z,6.80
2023-03-22T09:28:21.516Z,8.20
2023-03-22T09:29:21.435Z,6.20
2023-03-22T09:30:21.425Z,7.70
2023-03-22T09:31:21.435Z,5.70
2023-03-22T09:32:21.407Z,6.50
2023-03-22T09:33:21.393Z,6.50
2023-03-22T09:34:21.360Z,6.60
2023-03-22T09:35:21.377Z,5.40
2023-03-22T09:36:21.337Z,7.00
2023-03-22T09:37:21.540Z,7.40
2023-03-22T09:38:21.308Z,6.60
2023-03-22T09:39:21.303Z,6.90
2023-03-22T09:40:21.276Z,7.90
2023-03-22T09:41:21.290Z,7.60
2023-03-22T09:42:21.266Z,9.70
2023-03-22T09:43:21.282Z,5.90
2023-03-22T09:44:21.223Z,9.20
2023-03-22T09:45:21.228Z,14.10
2023-03-22T09:46:21.248Z,14.80
2023-03-22T09:47:21.214Z,44.00
2023-03-22T09:48:21.261Z,48.50
2023-03-22T09:49:21.165Z,110.30
2023-03-22T09:50:21.311Z,49.50
2023-03-22T09:51:21.137Z,102.80
2023-03-22T09:52:21.157Z,11.80
2023-03-22T09:53:21.121Z,30.60
2023-03-22T09:54:21.106Z,9.30
2023-03-22T09:55:21.091Z,9.00
2023-03-22T09:56:21.081Z,5.50
2023-03-22T09:57:21.066Z,6.80
2023-03-22T09:58:21.063Z,6.10
2023-03-22T09:59:21.044Z,6.00
2023-03-22T10:00:21.165Z,5.40
2023-03-22T10:01:21.308Z,6.90
2023-03-22T10:02:21.069Z,5.80
2023-03-22T10:03:20.989Z,4.90
2023-03-22T10:04:21.046Z,7.70
2023-03-22T10:05:20.978Z,7.50
2023-03-22T10:06:20.925Z,8.00
2023-03-22T10:07:20.926Z,5.40
2023-03-22T10:08:20.916Z,6.10
2023-03-22T10:09:20.896Z,5.90
2023-03-22T10:10:20.965Z,6.30
2023-03-22T10:11:20.902Z,6.80
2023-03-22T10:12:20.858Z,5.40
2023-03-22T10:13:20.840Z,6.50
2023-03-22T10:14:20.830Z,6.20
2023-03-22T10:15:20.849Z,7.20
2023-03-22T10:16:20.879Z,6.80
2023-03-22T10:17:20.824Z,5.80
2023-03-22T10:18:20.765Z,6.50
2023-03-22T10:19:20.786Z,7.20
2023-03-22T10:20:20.766Z,6.50
2023-03-22T10:21:20.739Z,6.20
2023-03-22T10:22:20.728Z,7.40
2023-03-22T10:23:20.714Z,9.90
2023-03-22T10:24:20.703Z,5.60
2023-03-22T10:25:20.713Z,7.50
2023-03-22T10:26:20.657Z,5.90
2023-03-22T10:27:20.659Z,4.80
2023-03-22T10:28:20.666Z,4.60
2023-03-22T10:29:20.637Z,6.50
2023-03-22T10:30:20.603Z,6.30
2023-03-22T10:31:20.643Z,5.20
2023-03-22T10:32:20.599Z,7.30
2023-03-22T10:33:20.576Z,6.10
2023-03-22T10:34:20.584Z,6.20
2023-03-22T10:35:20.575Z,5.30
2023-03-22T10:36:20.530Z,5.90
2023-03-22T10:37:20.566Z,6.00
2023-03-22T10:38:20.517Z,6.80
2023-03-22T10:39:20.497Z,5.60
2023-03-22T10:40:20.497Z,5.10
2023-03-22T10:41:20.462Z,4.30
2023-03-22T10:42:20.449Z,6.80
2023-03-22T10:43:20.448Z,7.40
2023-03-22T10:44:20.444Z,6.00
2023-03-22T10:45:20.417Z,5.30
2023-03-22T10:46:20.441Z,6.20
2023-03-22T10:47:20.437Z,5.70
2023-03-22T10:48:20.438Z,5.70
2023-03-22T10:49:20.361Z,4.60
2023-03-22T10:50:20.341Z,17.80
2023-03-22T10:51:20.332Z,22.60
2023-03-22T10:52:20.328Z,35.20
2023-03-22T10:53:20.308Z,8.40
2023-03-22T10:54:20.296Z,59.80
2023-03-22T10:55:20.283Z,113.40
2023-03-22T10:56:20.286Z,86.90
2023-03-22T10:57:20.300Z,66.50
2023-03-22T10:58:20.244Z,61.80
2023-03-22T10:59:20.224Z,102.20
2023-03-22T11:00:20.225Z,89.60
2023-03-22T11:01:20.339Z,141.70
2023-03-22T11:02:20.406Z,35.40
2023-03-22T11:03:20.175Z,157.80
2023-03-22T11:04:20.184Z,55.80
2023-03-22T11:05:20.147Z,8.80
2023-03-22T11:06:20.141Z,6.10
2023-03-22T11:07:20.135Z,7.20
2023-03-22T11:08:20.114Z,6.60
2023-03-22T11:09:20.097Z,4.50
2023-03-22T11:10:20.122Z,5.00
2023-03-22T11:11:20.083Z,4.70
2023-03-22T11:12:20.064Z,4.10
2023-03-22T11:13:20.055Z,4.40
2023-03-22T11:14:20.089Z,4.40
2023-03-22T11:15:20.016Z,5.20
2023-03-22T11:16:20.012Z,4.70
2023-03-22T11:17:20.009Z,4.70
2023-03-22T11:18:19.967Z,5.20
2023-03-22T11:19:19.964Z,5.10
2023-03-22T11:20:19.989Z,5.00
2023-03-22T11:21:19.934Z,5.00
2023-03-22T11:22:19.926Z,4.40
2023-03-22T11:23:19.915Z,4.70
2023-03-22T11:24:19.893Z,4.40
2023-03-22T11:25:19.884Z,5.10
2023-03-22T11:26:19.882Z,4.50
2023-03-22T11:27:19.860Z,5.30
2023-03-22T11:28:19.850Z,4.40
2023-03-22T11:29:19.827Z,4.50
2023-03-22T11:30:19.811Z,4.80
2023-03-22T11:31:19.860Z,5.40
2023-03-22T11:32:19.865Z,3.90
2023-03-22T11:33:19.777Z,4.40
2023-03-22T11:34:19.780Z,4.40
2023-03-22T11:35:19.743Z,4.70
2023-03-22T11:36:19.747Z,5.10
2023-03-22T11:37:19.734Z,4.00
2023-03-22T11:38:19.987Z,4.60
2023-03-22T11:39:19.704Z,3.80
2023-03-22T11:40:19.714Z,4.20
2023-03-22T11:41:20.148Z,4.40
2023-03-22T11:42:19.669Z,4.20
2023-03-22T11:43:19.653Z,5.30
2023-03-22T11:44:19.635Z,3.80
2023-03-22T11:45:19.617Z,3.70
2023-03-22T11:46:19.698Z,3.10
2023-03-22T11:47:19.616Z,6.10
2023-03-22T11:48:19.664Z,3.20
2023-03-22T11:49:19.566Z,3.20
2023-03-22T11:50:19.566Z,3.90
2023-03-22T11:51:19.553Z,4.90
2023-03-22T11:52:19.538Z,4.40
2023-03-22T11:53:19.528Z,3.50
2023-03-22T11:54:19.546Z,3.20
2023-03-22T11:55:19.499Z,4.90
2023-03-22T11:56:19.476Z,4.10
2023-03-22T11:57:19.457Z,3.20
2023-03-22T11:58:19.446Z,4.50
2023-03-22T11:59:19.442Z,3.70
2023-03-22T12:00:19.456Z,4.10
2023-03-22T12:01:19.416Z,7.20
2023-03-22T12:02:19.480Z,4.50
2023-03-22T12:03:19.494Z,10.10
2023-03-22T12:04:19.380Z,7.10
2023-03-22T12:05:19.442Z,9.50
2023-03-22T12:06:19.507Z,5.80
2023-03-22T12:07:19.316Z,5.10
2023-03-22T12:08:19.335Z,3.70
2023-03-22T12:09:19.290Z,3.50
2023-03-22T12:10:19.295Z,3.10
2023-03-22T12:11:19.272Z,3.70
2023-03-22T12:12:19.293Z,3.00
2023-03-22T12:13:19.265Z,5.60
2023-03-22T12:14:19.228Z,4.30
2023-03-22T12:15:19.225Z,2.50
2023-03-22T12:16:19.242Z,2.90
2023-03-22T12:17:19.175Z,2.00
2023-03-22T12:18:19.278Z,4.10
2023-03-22T12:19:19.153Z,2.10
2023-03-22T12:20:19.177Z,2.90
2023-03-22T12:21:19.127Z,2.30
2023-03-22T12:22:19.121Z,3.80
2023-03-22T12:23:19.117Z,3.40
2023-03-22T12:24:19.100Z,3.30
2023-03-22T12:25:19.081Z,5.10
2023-03-22T12:26:19.086Z,2.80
2023-03-22T12:27:19.080Z,3.30
2023-03-22T12:28:19.058Z,3.50
2023-03-22T12:29:19.033Z,4.10
2023-03-22T12:30:19.021Z,3.30
2023-03-22T12:31:19.027Z,2.40
2023-03-22T12:32:19.013Z,2.70
2023-03-22T12:33:19.104Z,3.50
2023-03-22T12:34:18.977Z,2.90
2023-03-22T12:35:18.940Z,2.90
2023-03-22T12:36:19.068Z,4.60
2023-03-22T12:37:18.958Z,2.40
2023-03-22T12:38:18.935Z,3.10
2023-03-22T12:39:18.950Z,3.60
2023-03-22T12:40:18.889Z,4.10
2023-03-22T12:41:18.888Z,3.30
2023-03-22T12:42:18.886Z,3.70
2023-03-22T12:43:18.860Z,2.80
2023-03-22T12:44:18.829Z,5.70
2023-03-22T12:45:18.826Z,4.00
2023-03-22T12:46:18.845Z,2.40
2023-03-22T12:47:18.792Z,3.70
2023-03-22T12:48:18.945Z,3.50
2023-03-22T12:49:18.752Z,2.90
2023-03-22T12:50:18.766Z,3.50
2023-03-22T12:51:18.748Z,3.30
2023-03-22T12:52:18.735Z,4.20
2023-03-22T12:53:18.746Z,4.30
2023-03-22T12:54:18.703Z,2.40
2023-03-22T12:55:18.692Z,4.20
2023-03-22T12:56:18.672Z,3.30
2023-03-22T12:57:18.673Z,5.50
2023-03-22T12:58:18.659Z,5.40
2023-03-22T12:59:18.640Z,3.10
2023-03-22T13:00:18.621Z,2.40
2023-03-22T13:01:18.610Z,3.60
2023-03-22T13:02:18.582Z,5.70